sensor_id;sensor_type;location;lat;lon;timestamp;P1;durP1;ratioP1;P2;durP2;ratioP2
17283;SDS011;8760;52.248;20.952;2023-03-24T00:01:05;6.27;;;4.70;;
17283;SDS011;8760;52.248;20.952;2023-03-24T00:03:32;8.77;;;6.30;;
17283;SDS011;8760;52.248;20.952;2023-03-24T00:06:01;7.87;;;4.97;;
17283;SDS011;8760;52.248;20.952;2023-03-24T00:08:30;8.53;;;5.33;;
17283;SDS011;8760;52.248;20.952;2023-03-24T00:11:02;10.00;;;6.80;;
17283;SDS011;8760;52.248;20.952;2023-03-24T00:13:32;10.37;;;5.20;;
17283;SDS011;8760;52.248;20.952;2023-03-24T00:16:02;9.27;;;6.00;;
17283;SDS011;8760;52.248;20.952;2023-03-24T00:18:30;10.40;;;6.67;;
17283;SDS011;8760;52.248;20.952;2023-03-24T00:20:56;8.30;;;5.20;;
17283;SDS011;8760;52.248;20.952;2023-03-24T00:23:24;10.20;;;6.43;;
17283;SDS011;8760;52.248;20.952;2023-03-24T00:25:58;7.63;;;5.33;;
17283;SDS011;8760;52.248;20.952;2023-03-24T00:28:28;10.07;;;6.30;;
17283;SDS011;8760;52.248;20.952;2023-03-24T00:30:57;9.57;;;6.33;;
17283;SDS011;8760;52.248;20.952;2023-03-24T00:33:24;8.33;;;5.90;;
17283;SDS011;8760;52.248;20.952;2023-03-24T00:35:51;7.57;;;5.37;;
17283;SDS011;8760;52.248;20.952;2023-03-24T00:38:18;10.33;;;6.00;;
17283;SDS011;8760;52.248;20.952;2023-03-24T00:40:45;7.23;;;5.20;;
17283;SDS011;8760;52.248;20.952;2023-03-24T00:43:12;7.00;;;5.43;;
17283;SDS011;8760;52.248;20.952;2023-03-24T00:45:41;9.07;;;6.03;;
17283;SDS011;8760;52.248;20.952;2023-03-24T00:48:10;9.20;;;5.77;;
17283;SDS011;8760;52.248;20.952;2023-03-24T00:50:37;11.67;;;5.50;;
17283;SDS011;8760;52.248;20.952;2023-03-24T00:53:05;7.33;;;4.80;;
17283;SDS011;8760;52.248;20.952;2023-03-24T00:55:34;6.20;;;4.93;;
17283;SDS011;8760;52.248;20.952;2023-03-24T00:58:02;8.23;;;5.67;;
17283;SDS011;8760;52.248;20.952;2023-03-24T01:00:29;8.90;;;5.67;;
17283;SDS011;8760;52.248;20.952;2023-03-24T01:02:58;10.43;;;6.20;;
17283;SDS011;8760;52.248;20.952;2023-03-24T01:05:29;7.30;;;5.17;;
17283;SDS011;8760;52.248;20.952;2023-03-24T01:07:56;8.50;;;5.40;;
17283;SDS011;8760;52.248;20.952;2023-03-24T01:10:27;10.30;;;5.77;;
17283;SDS011;8760;52.248;20.952;2023-03-24T01:12:57;9.00;;;5.60;;
17283;SDS011;8760;52.248;20.952;2023-03-24T01:15:26;8.60;;;4.87;;
17283;SDS011;8760;52.248;20.952;2023-03-24T01:17:54;9.13;;;5.00;;
17283;SDS011;8760;52.248;20.952;2023-03-24T01:20:23;8.17;;;5.20;;
17283;SDS011;8760;52.248;20.952;2023-03-24T01:22:50;7.23;;;4.73;;
17283;SDS011;8760;52.248;20.952;2023-03-24T01:25:20;8.77;;;5.17;;
17283;SDS011;8760;52.248;20.952;2023-03-24T01:27:48;7.30;;;4.90;;
17283;SDS011;8760;52.248;20.952;2023-03-24T01:30:17;6.53;;;4.60;;
17283;SDS011;8760;52.248;20.952;2023-03-24T01:32:46;9.17;;;5.20;;
17283;SDS011;8760;52.248;20.952;2023-03-24T01:35:13;11.83;;;5.20;;
17283;SDS011;8760;52.248;20.952;2023-03-24T01:37:42;6.00;;;4.17;;
17283;SDS011;8760;52.248;20.952;2023-03-24T01:40:10;7.30;;;5.07;;
17283;SDS011;8760;52.248;20.952;2023-03-24T01:42:42;9.10;;;4.80;;
17283;SDS011;8760;52.248;20.952;2023-03-24T01:48:08;6.60;;;4.80;;
17283;SDS011;8760;52.248;20.952;2023-03-24T01:50:39;7.93;;;4.43;;
17283;SDS011;8760;52.248;20.952;2023-03-24T01:53:10;7.83;;;4.80;;
17283;SDS011;8760;52.248;20.952;2023-03-24T01:55:37;7.97;;;4.93;;
17283;SDS011;8760;52.248;20.952;2023-03-24T01:58:05;7.13;;;5.17;;
17283;SDS011;8760;52.248;20.952;2023-03-24T02:00:32;5.60;;;4.33;;
17283;SDS011;8760;52.248;20.952;2023-03-24T02:03:03;8.57;;;4.70;;
17283;SDS011;8760;52.248;20.952;2023-03-24T02:05:34;7.53;;;5.13;;
17283;SDS011;8760;52.248;20.952;2023-03-24T02:08:05;7.87;;;5.30;;
17283;SDS011;8760;52.248;20.952;2023-03-24T02:10:37;6.53;;;4.40;;
17283;SDS011;8760;52.248;20.952;2023-03-24T02:13:04;7.10;;;4.80;;
17283;SDS011;8760;52.248;20.952;2023-03-24T02:15:33;6.00;;;4.77;;
17283;SDS011;8760;52.248;20.952;2023-03-24T02:18:08;9.93;;;5.30;;
17283;SDS011;8760;52.248;20.952;2023-03-24T02:24:17;8.47;;;5.17;;
17283;SDS011;8760;52.248;20.952;2023-03-24T02:27:15;8.00;;;5.17;;
17283;SDS011;8760;52.248;20.952;2023-03-24T02:32:56;7.47;;;5.00;;
17283;SDS011;8760;52.248;20.952;2023-03-24T02:35:53;6.10;;;4.93;;
17283;SDS011;8760;52.248;20.952;2023-03-24T02:41:51;8.27;;;4.70;;
17283;SDS011;8760;52.248;20.952;2023-03-24T02:44:28;7.30;;;5.07;;
17283;SDS011;8760;52.248;20.952;2023-03-24T02:47:02;7.73;;;5.00;;
17283;SDS011;8760;52.248;20.952;2023-03-24T02:49:36;7.70;;;5.20;;
17283;SDS011;8760;52.248;20.952;2023-03-24T02:52:12;7.70;;;5.03;;
17283;SDS011;8760;52.248;20.952;2023-03-24T02:54:44;8.97;;;5.23;;
17283;SDS011;8760;52.248;20.952;2023-03-24T02:57:17;6.80;;;5.03;;
17283;SDS011;8760;52.248;20.952;2023-03-24T02:59:48;8.10;;;5.30;;
17283;SDS011;8760;52.248;20.952;2023-03-24T03:02:18;8.43;;;5.33;;
17283;SDS011;8760;52.248;20.952;2023-03-24T03:04:49;10.60;;;5.50;;
17283;SDS011;8760;52.248;20.952;2023-03-24T03:07:20;11.50;;;5.60;;
17283;SDS011;8760;52.248;20.952;2023-03-24T03:09:52;9.60;;;5.80;;
17283;SDS011;8760;52.248;20.952;2023-03-24T03:12:23;7.97;;;5.80;;
17283;SDS011;8760;52.248;20.952;2023-03-24T03:14:53;12.67;;;6.00;;
17283;SDS011;8760;52.248;20.952;2023-03-24T03:17:24;10.23;;;6.13;;
17283;SDS011;8760;52.248;20.952;2023-03-24T03:19:56;10.90;;;6.27;;
17283;SDS011;8760;52.248;20.952;2023-03-24T03:22:32;7.27;;;5.57;;
17283;SDS011;8760;52.248;20.952;2023-03-24T03:25:07;9.67;;;5.53;;
17283;SDS011;8760;52.248;20.952;2023-03-24T03:27:37;6.30;;;5.27;;
17283;SDS011;8760;52.248;20.952;2023-03-24T03:30:11;10.30;;;5.50;;
17283;SDS011;8760;52.248;20.952;2023-03-24T03:32:43;11.23;;;5.73;;
17283;SDS011;8760;52.248;20.952;2023-03-24T03:35:18;7.40;;;5.07;;
17283;SDS011;8760;52.248;20.952;2023-03-24T03:37:50;7.07;;;5.00;;
17283;SDS011;8760;52.248;20.952;2023-03-24T03:40:22;6.53;;;4.57;;
17283;SDS011;8760;52.248;20.952;2023-03-24T03:42:55;7.40;;;5.13;;
17283;SDS011;8760;52.248;20.952;2023-03-24T03:45:23;7.90;;;4.80;;
17283;SDS011;8760;52.248;20.952;2023-03-24T03:47:50;7.93;;;4.40;;
17283;SDS011;8760;52.248;20.952;2023-03-24T03:50:17;6.70;;;5.27;;
17283;SDS011;8760;52.248;20.952;2023-03-24T03:52:44;8.60;;;5.00;;
17283;SDS011;8760;52.248;20.952;2023-03-24T03:55:11;5.97;;;4.80;;
17283;SDS011;8760;52.248;20.952;2023-03-24T03:57:39;7.07;;;5.30;;
17283;SDS011;8760;52.248;20.952;2023-03-24T04:00:12;6.63;;;4.60;;
17283;SDS011;8760;52.248;20.952;2023-03-24T04:02:42;7.27;;;4.90;;
17283;SDS011;8760;52.248;20.952;2023-03-24T04:05:23;6.27;;;5.27;;
17283;SDS011;8760;52.248;20.952;2023-03-24T04:08:00;7.87;;;4.70;;
17283;SDS011;8760;52.248;20.952;2023-03-24T04:10:40;6.87;;;4.57;;
17283;SDS011;8760;52.248;20.952;2023-03-24T04:13:22;10.00;;;5.50;;
17283;SDS011;8760;52.248;20.952;2023-03-24T04:15:54;7.97;;;5.43;;
17283;SDS011;8760;52.248;20.952;2023-03-24T04:18:31;5.80;;;4.50;;
17283;SDS011;8760;52.248;20.952;2023-03-24T04:21:12;6.73;;;4.87;;
17283;SDS011;8760;52.248;20.952;2023-03-24T04:23:53;8.43;;;4.63;;
17283;SDS011;8760;52.248;20.952;2023-03-24T04:26:29;9.20;;;5.00;;
17283;SDS011;8760;52.248;20.952;2023-03-24T04:29:02;8.23;;;4.90;;
17283;SDS011;8760;52.248;20.952;2023-03-24T04:31:36;8.60;;;5.03;;
17283;SDS011;8760;52.248;20.952;2023-03-24T04:34:09;7.17;;;4.83;;
17283;SDS011;8760;52.248;20.952;2023-03-24T04:36:42;7.93;;;4.90;;
17283;SDS011;8760;52.248;20.952;2023-03-24T04:39:15;7.60;;;4.87;;
17283;SDS011;8760;52.248;20.952;2023-03-24T04:41:49;7.37;;;4.70;;
17283;SDS011;8760;52.248;20.952;2023-03-24T04:44:17;8.70;;;5.17;;
17283;SDS011;8760;52.248;20.952;2023-03-24T04:46:47;6.47;;;4.70;;
17283;SDS011;8760;52.248;20.952;2023-03-24T04:49:16;12.80;;;4.87;;
17283;SDS011;8760;52.248;20.952;2023-03-24T04:51:43;8.70;;;5.00;;
17283;SDS011;8760;52.248;20.952;2023-03-24T04:54:11;10.33;;;5.43;;
17283;SDS011;8760;52.248;20.952;2023-03-24T04:56:39;9.43;;;5.03;;
17283;SDS011;8760;52.248;20.952;2023-03-24T04:59:10;10.03;;;5.20;;
17283;SDS011;8760;52.248;20.952;2023-03-24T05:01:37;9.97;;;5.27;;
17283;SDS011;8760;52.248;20.952;2023-03-24T05:04:06;8.83;;;5.17;;
17283;SDS011;8760;52.248;20.952;2023-03-24T05:06:33;9.10;;;5.47;;
17283;SDS011;8760;52.248;20.952;2023-03-24T05:09:00;9.97;;;5.10;;
17283;SDS011;8760;52.248;20.952;2023-03-24T05:11:28;7.53;;;5.80;;
17283;SDS011;8760;52.248;20.952;2023-03-24T05:13:55;8.10;;;5.50;;
17283;SDS011;8760;52.248;20.952;2023-03-24T05:16:22;10.63;;;6.37;;
17283;SDS011;8760;52.248;20.952;2023-03-24T05:18:49;11.67;;;6.13;;
17283;SDS011;8760;52.248;20.952;2023-03-24T05:21:17;9.33;;;6.47;;
17283;SDS011;8760;52.248;20.952;2023-03-24T05:23:45;14.53;;;6.93;;
17283;SDS011;8760;52.248;20.952;2023-03-24T05:26:12;12.13;;;6.53;;
17283;SDS011;8760;52.248;20.952;2023-03-24T05:28:39;9.97;;;7.10;;
17283;SDS011;8760;52.248;20.952;2023-03-24T05:31:06;8.87;;;6.60;;
17283;SDS011;8760;52.248;20.952;2023-03-24T05:33:33;9.60;;;7.40;;
17283;SDS011;8760;52.248;20.952;2023-03-24T05:36:00;12.70;;;7.60;;
17283;SDS011;8760;52.248;20.952;2023-03-24T05:38:28;10.63;;;7.03;;
17283;SDS011;8760;52.248;20.952;2023-03-24T05:40:56;11.60;;;7.53;;
17283;SDS011;8760;52.248;20.952;2023-03-24T05:43:23;12.03;;;7.10;;
17283;SDS011;8760;52.248;20.952;2023-03-24T05:45:50;10.20;;;7.90;;
17283;SDS011;8760;52.248;20.952;2023-03-24T05:48:17;11.77;;;7.40;;
17283;SDS011;8760;52.248;20.952;2023-03-24T05:50:44;12.40;;;7.87;;
17283;SDS011;8760;52.248;20.952;2023-03-24T05:53:11;11.93;;;8.30;;
17283;SDS011;8760;52.248;20.952;2023-03-24T05:55:39;10.53;;;7.07;;
17283;SDS011;8760;52.248;20.952;2023-03-24T05:58:06;16.03;;;8.17;;
17283;SDS011;8760;52.248;20.952;2023-03-24T06:00:33;15.63;;;9.27;;
17283;SDS011;8760;52.248;20.952;2023-03-24T06:03:03;11.83;;;8.13;;
17283;SDS011;8760;52.248;20.952;2023-03-24T06:05:30;10.53;;;8.10;;
17283;SDS011;8760;52.248;20.952;2023-03-24T06:07:57;13.03;;;8.17;;
17283;SDS011;8760;52.248;20.952;2023-03-24T06:10:25;13.80;;;8.33;;
17283;SDS011;8760;52.248;20.952;2023-03-24T06:12:54;12.33;;;8.50;;
17283;SDS011;8760;52.248;20.952;2023-03-24T06:15:22;14.13;;;8.87;;
17283;SDS011;8760;52.248;20.952;2023-03-24T06:17:51;11.83;;;8.40;;
17283;SDS011;8760;52.248;20.952;2023-03-24T06:20:19;15.73;;;9.10;;
17283;SDS011;8760;52.248;20.952;2023-03-24T06:22:46;14.23;;;8.07;;
17283;SDS011;8760;52.248;20.952;2023-03-24T06:25:14;13.17;;;8.47;;
17283;SDS011;8760;52.248;20.952;2023-03-24T06:27:44;12.37;;;8.73;;
17283;SDS011;8760;52.248;20.952;2023-03-24T06:30:13;11.53;;;8.60;;
17283;SDS011;8760;52.248;20.952;2023-03-24T06:32:41;13.83;;;9.20;;
17283;SDS011;8760;52.248;20.952;2023-03-24T06:35:10;17.27;;;8.93;;
17283;SDS011;8760;52.248;20.952;2023-03-24T06:37:38;13.50;;;8.80;;
17283;SDS011;8760;52.248;20.952;2023-03-24T06:40:05;11.47;;;8.93;;
17283;SDS011;8760;52.248;20.952;2023-03-24T06:42:37;14.40;;;9.00;;
17283;SDS011;8760;52.248;20.952;2023-03-24T06:45:04;12.37;;;8.73;;
17283;SDS011;8760;52.248;20.952;2023-03-24T06:47:34;18.03;;;9.27;;
17283;SDS011;8760;52.248;20.952;2023-03-24T06:50:01;17.20;;;8.57;;
17283;SDS011;8760;52.248;20.952;2023-03-24T06:52:29;17.20;;;8.30;;
17283;SDS011;8760;52.248;20.952;2023-03-24T06:54:56;15.10;;;8.40;;
17283;SDS011;8760;52.248;20.952;2023-03-24T06:57:23;16.83;;;8.67;;
17283;SDS011;8760;52.248;20.952;2023-03-24T06:59:51;17.37;;;9.67;;
17283;SDS011;8760;52.248;20.952;2023-03-24T07:02:18;16.23;;;9.07;;
17283;SDS011;8760;52.248;20.952;2023-03-24T07:04:47;12.53;;;8.40;;
17283;SDS011;8760;52.248;20.952;2023-03-24T07:07:14;12.83;;;8.77;;
17283;SDS011;8760;52.248;20.952;2023-03-24T07:09:42;15.63;;;9.10;;
17283;SDS011;8760;52.248;20.952;2023-03-24T07:12:09;15.40;;;8.83;;
17283;SDS011;8760;52.248;20.952;2023-03-24T07:14:37;15.67;;;8.33;;
17283;SDS011;8760;52.248;20.952;2023-03-24T07:17:03;12.83;;;9.27;;
17283;SDS011;8760;52.248;20.952;2023-03-24T07:19:30;13.03;;;8.23;;
17283;SDS011;8760;52.248;20.952;2023-03-24T07:21:59;12.10;;;7.80;;
17283;SDS011;8760;52.248;20.952;2023-03-24T07:24:26;14.67;;;8.33;;
17283;SDS011;8760;52.248;20.952;2023-03-24T07:26:53;15.67;;;8.60;;
17283;SDS011;8760;52.248;20.952;2023-03-24T07:29:19;10.57;;;7.70;;
17283;SDS011;8760;52.248;20.952;2023-03-24T07:31:46;13.00;;;7.93;;
17283;SDS011;8760;52.248;20.952;2023-03-24T07:34:17;13.00;;;8.00;;
17283;SDS011;8760;52.248;20.952;2023-03-24T07:36:44;12.37;;;6.80;;
17283;SDS011;8760;52.248;20.952;2023-03-24T07:39:12;11.33;;;6.93;;
17283;SDS011;8760;52.248;20.952;2023-03-24T07:41:39;11.27;;;7.00;;
17283;SDS011;8760;52.248;20.952;2023-03-24T07:44:06;10.13;;;7.07;;
17283;SDS011;8760;52.248;20.952;2023-03-24T07:46:33;11.50;;;6.43;;
17283;SDS011;8760;52.248;20.952;2023-03-24T07:49:00;8.70;;;6.60;;
17283;SDS011;8760;52.248;20.952;2023-03-24T07:51:27;8.17;;;6.33;;
17283;SDS011;8760;52.248;20.952;2023-03-24T07:53:54;11.23;;;6.60;;
17283;SDS011;8760;52.248;20.952;2023-03-24T07:56:23;8.60;;;6.40;;
17283;SDS011;8760;52.248;20.952;2023-03-24T07:58:50;11.20;;;6.07;;
17283;SDS011;8760;52.248;20.952;2023-03-24T08:01:17;12.20;;;6.93;;
17283;SDS011;8760;52.248;20.952;2023-03-24T08:03:43;8.57;;;6.83;;
17283;SDS011;8760;52.248;20.952;2023-03-24T08:06:13;11.10;;;6.83;;
17283;SDS011;8760;52.248;20.952;2023-03-24T08:08:40;9.33;;;6.90;;
17283;SDS011;8760;52.248;20.952;2023-03-24T08:11:07;8.77;;;6.67;;
17283;SDS011;8760;52.248;20.952;2023-03-24T08:13:35;9.67;;;7.00;;
17283;SDS011;8760;52.248;20.952;2023-03-24T08:16:02;9.77;;;7.00;;
17283;SDS011;8760;52.248;20.952;2023-03-24T08:18:29;9.97;;;7.43;;
17283;SDS011;8760;52.248;20.952;2023-03-24T08:20:59;10.27;;;7.13;;
17283;SDS011;8760;52.248;20.952;2023-03-24T08:23:26;10.63;;;7.33;;
17283;SDS011;8760;52.248;20.952;2023-03-24T08:25:53;9.83;;;7.40;;
17283;SDS011;8760;52.248;20.952;2023-03-24T08:28:20;13.83;;;7.47;;
17283;SDS011;8760;52.248;20.952;2023-03-24T08:30:48;11.67;;;7.30;;
17283;SDS011;8760;52.248;20.952;2023-03-24T08:33:15;11.53;;;7.57;;
17283;SDS011;8760;52.248;20.952;2023-03-24T08:35:42;13.03;;;8.40;;
17283;SDS011;8760;52.248;20.952;2023-03-24T08:38:10;12.40;;;8.27;;
17283;SDS011;8760;52.248;20.952;2023-03-24T08:40:39;13.33;;;8.47;;
17283;SDS011;8760;52.248;20.952;2023-03-24T08:43:07;13.33;;;7.73;;
17283;SDS011;8760;52.248;20.952;2023-03-24T08:45:38;11.07;;;7.70;;
17283;SDS011;8760;52.248;20.952;2023-03-24T08:48:07;11.63;;;7.80;;
17283;SDS011;8760;52.248;20.952;2023-03-24T08:50:35;14.97;;;8.37;;
17283;SDS011;8760;52.248;20.952;2023-03-24T08:53:04;11.20;;;7.83;;
17283;SDS011;8760;52.248;20.952;2023-03-24T08:55:31;11.10;;;8.43;;
17283;SDS011;8760;52.248;20.952;2023-03-24T08:57:58;12.13;;;7.90;;
17283;SDS011;8760;52.248;20.952;2023-03-24T09:00:25;14.53;;;8.40;;
17283;SDS011;8760;52.248;20.952;2023-03-24T09:02:53;11.23;;;7.70;;
17283;SDS011;8760;52.248;20.952;2023-03-24T09:05:22;12.20;;;7.13;;
17283;SDS011;8760;52.248;20.952;2023-03-24T09:07:51;8.83;;;6.80;;
17283;SDS011;8760;52.248;20.952;2023-03-24T09:10:18;11.93;;;7.10;;
17283;SDS011;8760;52.248;20.952;2023-03-24T09:12:46;9.80;;;6.80;;
17283;SDS011;8760;52.248;20.952;2023-03-24T09:15:13;9.80;;;7.00;;
17283;SDS011;8760;52.248;20.952;2023-03-24T09:17:41;10.70;;;6.43;;
17283;SDS011;8760;52.248;20.952;2023-03-24T09:20:09;9.43;;;6.90;;
17283;SDS011;8760;52.248;20.952;2023-03-24T09:22:38;11.20;;;7.00;;
17283;SDS011;8760;52.248;20.952;2023-03-24T09:25:07;9.60;;;7.10;;
17283;SDS011;8760;52.248;20.952;2023-03-24T09:27:34;11.30;;;6.90;;
17283;SDS011;8760;52.248;20.952;2023-03-24T09:30:02;9.45;;;6.88;;
17283;SDS011;8760;52.248;20.952;2023-03-24T09:32:31;12.20;;;6.70;;
17283;SDS011;8760;52.248;20.952;2023-03-24T09:34:58;13.15;;;7.30;;
17283;SDS011;8760;52.248;20.952;2023-03-24T09:37:27;8.85;;;6.57;;
17283;SDS011;8760;52.248;20.952;2023-03-24T09:39:55;11.52;;;7.10;;
17283;SDS011;8760;52.248;20.952;2023-03-24T09:42:23;10.65;;;6.65;;
17283;SDS011;8760;52.248;20.952;2023-03-24T09:44:53;8.57;;;6.32;;
17283;SDS011;8760;52.248;20.952;2023-03-24T09:47:24;10.32;;;6.03;;
17283;SDS011;8760;52.248;20.952;2023-03-24T09:49:56;9.80;;;6.65;;
17283;SDS011;8760;52.248;20.952;2023-03-24T09:52:28;8.20;;;6.30;;
17283;SDS011;8760;52.248;20.952;2023-03-24T09:55:01;8.82;;;6.43;;
17283;SDS011;8760;52.248;20.952;2023-03-24T09:57:32;9.13;;;6.72;;
17283;SDS011;8760;52.248;20.952;2023-03-24T10:00:04;10.23;;;6.82;;
17283;SDS011;8760;52.248;20.952;2023-03-24T10:02:41;8.68;;;6.65;;
17283;SDS011;8760;52.248;20.952;2023-03-24T10:05:11;9.77;;;7.05;;
17283;SDS011;8760;52.248;20.952;2023-03-24T10:07:40;9.25;;;6.68;;
17283;SDS011;8760;52.248;20.952;2023-03-24T10:10:16;8.32;;;6.70;;
17283;SDS011;8760;52.248;20.952;2023-03-24T10:12:49;9.57;;;6.80;;
17283;SDS011;8760;52.248;20.952;2023-03-24T10:15:19;9.60;;;6.72;;
17283;SDS011;8760;52.248;20.952;2023-03-24T10:17:55;9.02;;;6.35;;
17283;SDS011;8760;52.248;20.952;2023-03-24T10:20:29;18.45;;;10.70;;
17283;SDS011;8760;52.248;20.952;2023-03-24T10:23:02;10.13;;;8.75;;
17283;SDS011;8760;52.248;20.952;2023-03-24T10:25:43;11.48;;;7.70;;
17283;SDS011;8760;52.248;20.952;2023-03-24T10:28:17;17.55;;;9.18;;
17283;SDS011;8760;52.248;20.952;2023-03-24T10:30:46;7.57;;;5.97;;
17283;SDS011;8760;52.248;20.952;2023-03-24T10:33:15;7.43;;;5.63;;
17283;SDS011;8760;52.248;20.952;2023-03-24T10:35:44;7.53;;;5.63;;
17283;SDS011;8760;52.248;20.952;2023-03-24T10:38:17;11.50;;;6.13;;
17283;SDS011;8760;52.248;20.952;2023-03-24T10:40:47;8.32;;;5.53;;
17283;SDS011;8760;52.248;20.952;2023-03-24T10:43:15;8.35;;;6.28;;
17283;SDS011;8760;52.248;20.952;2023-03-24T10:45:43;10.25;;;6.18;;
17283;SDS011;8760;52.248;20.952;2023-03-24T10:48:13;8.15;;;5.57;;
17283;SDS011;8760;52.248;20.952;2023-03-24T10:50:58;9.18;;;6.30;;
17283;SDS011;8760;52.248;20.952;2023-03-24T10:53:25;13.52;;;6.63;;
17283;SDS011;8760;52.248;20.952;2023-03-24T10:55:54;6.93;;;5.95;;
17283;SDS011;8760;52.248;20.952;2023-03-24T10:58:25;9.02;;;5.38;;
17283;SDS011;8760;52.248;20.952;2023-03-24T11:00:55;10.48;;;5.80;;
17283;SDS011;8760;52.248;20.952;2023-03-24T11:03:25;9.60;;;6.30;;
17283;SDS011;8760;52.248;20.952;2023-03-24T11:05:56;8.45;;;5.75;;
17283;SDS011;8760;52.248;20.952;2023-03-24T11:08:26;7.50;;;6.07;;
17283;SDS011;8760;52.248;20.952;2023-03-24T11:10:58;9.45;;;5.63;;
17283;SDS011;8760;52.248;20.952;2023-03-24T11:13:27;10.25;;;5.63;;
17283;SDS011;8760;52.248;20.952;2023-03-24T11:16:03;12.65;;;5.82;;
17283;SDS011;8760;52.248;20.952;2023-03-24T11:18:34;8.18;;;5.50;;
17283;SDS011;8760;52.248;20.952;2023-03-24T11:21:02;10.02;;;5.63;;
17283;SDS011;8760;52.248;20.952;2023-03-24T11:23:31;8.75;;;5.60;;
17283;SDS011;8760;52.248;20.952;2023-03-24T11:26:05;11.35;;;5.85;;
17283;SDS011;8760;52.248;20.952;2023-03-24T11:28:38;8.27;;;5.05;;
17283;SDS011;8760;52.248;20.952;2023-03-24T11:31:07;8.90;;;6.38;;
17283;SDS011;8760;52.248;20.952;2023-03-24T11:33:40;9.60;;;5.72;;
17283;SDS011;8760;52.248;20.952;2023-03-24T11:39:08;8.32;;;5.80;;
17283;SDS011;8760;52.248;20.952;2023-03-24T11:41:40;11.07;;;5.63;;
17283;SDS011;8760;52.248;20.952;2023-03-24T11:44:18;9.20;;;6.15;;
17283;SDS011;8760;52.248;20.952;2023-03-24T11:46:48;7.82;;;6.43;;
17283;SDS011;8760;52.248;20.952;2023-03-24T11:49:19;8.82;;;6.68;;
17283;SDS011;8760;52.248;20.952;2023-03-24T11:51:52;7.45;;;5.80;;
17283;SDS011;8760;52.248;20.952;2023-03-24T11:54:22;11.30;;;5.70;;
17283;SDS011;8760;52.248;20.952;2023-03-24T11:56:54;10.18;;;5.88;;
17283;SDS011;8760;52.248;20.952;2023-03-24T11:59:26;7.43;;;5.45;;
17283;SDS011;8760;52.248;20.952;2023-03-24T12:02:00;10.45;;;7.13;;
17283;SDS011;8760;52.248;20.952;2023-03-24T12:04:40;8.30;;;5.43;;
17283;SDS011;8760;52.248;20.952;2023-03-24T12:07:37;11.57;;;6.43;;
17283;SDS011;8760;52.248;20.952;2023-03-24T12:10:20;11.85;;;5.93;;
17283;SDS011;8760;52.248;20.952;2023-03-24T12:12:57;7.35;;;6.00;;
17283;SDS011;8760;52.248;20.952;2023-03-24T12:15:36;13.05;;;7.95;;
17283;SDS011;8760;52.248;20.952;2023-03-24T12:18:31;9.15;;;5.70;;
17283;SDS011;8760;52.248;20.952;2023-03-24T12:21:11;8.48;;;5.00;;
17283;SDS011;8760;52.248;20.952;2023-03-24T12:23:50;7.75;;;5.03;;
17283;SDS011;8760;52.248;20.952;2023-03-24T12:26:22;8.75;;;5.00;;
17283;SDS011;8760;52.248;20.952;2023-03-24T12:31:59;9.50;;;5.25;;
17283;SDS011;8760;52.248;20.952;2023-03-24T12:37:48;5.45;;;4.10;;
17283;SDS011;8760;52.248;20.952;2023-03-24T12:43:25;5.97;;;3.65;;
17283;SDS011;8760;52.248;20.952;2023-03-24T12:45:58;4.60;;;3.50;;
17283;SDS011;8760;52.248;20.952;2023-03-24T12:48:37;6.43;;;3.83;;
17283;SDS011;8760;52.248;20.952;2023-03-24T12:51:16;4.25;;;3.47;;
17283;SDS011;8760;52.248;20.952;2023-03-24T12:53:53;5.40;;;3.97;;
17283;SDS011;8760;52.248;20.952;2023-03-24T12:56:30;5.57;;;3.97;;
17283;SDS011;8760;52.248;20.952;2023-03-24T12:59:03;6.40;;;3.35;;
17283;SDS011;8760;52.248;20.952;2023-03-24T13:01:37;5.80;;;3.80;;
17283;SDS011;8760;52.248;20.952;2023-03-24T13:04:07;4.03;;;3.40;;
17283;SDS011;8760;52.248;20.952;2023-03-24T13:06:38;3.83;;;3.03;;
17283;SDS011;8760;52.248;20.952;2023-03-24T13:09:12;4.80;;;3.25;;
17283;SDS011;8760;52.248;20.952;2023-03-24T13:11:46;7.70;;;3.65;;
17283;SDS011;8760;52.248;20.952;2023-03-24T13:14:24;5.47;;;3.60;;
17283;SDS011;8760;52.248;20.952;2023-03-24T13:16:59;4.47;;;2.95;;
17283;SDS011;8760;52.248;20.952;2023-03-24T13:19:29;5.20;;;3.10;;
17283;SDS011;8760;52.248;20.952;2023-03-24T13:21:58;4.40;;;3.25;;
17283;SDS011;8760;52.248;20.952;2023-03-24T13:24:27;4.63;;;3.30;;
17283;SDS011;8760;52.248;20.952;2023-03-24T13:26:57;6.13;;;3.25;;
17283;SDS011;8760;52.248;20.952;2023-03-24T13:29:51;4.15;;;3.10;;
17283;SDS011;8760;52.248;20.952;2023-03-24T13:32:40;3.17;;;2.83;;
17283;SDS011;8760;52.248;20.952;2023-03-24T13:35:12;4.03;;;2.70;;
17283;SDS011;8760;52.248;20.952;2023-03-24T13:37:45;5.38;;;3.47;;
17283;SDS011;8760;52.248;20.952;2023-03-24T13:40:20;5.78;;;3.17;;
17283;SDS011;8760;52.248;20.952;2023-03-24T13:42:51;3.47;;;2.67;;
17283;SDS011;8760;52.248;20.952;2023-03-24T13:45:22;9.20;;;3.97;;
17283;SDS011;8760;52.248;20.952;2023-03-24T13:48:01;3.63;;;2.88;;
17283;SDS011;8760;52.248;20.952;2023-03-24T13:50:31;5.50;;;3.28;;
17283;SDS011;8760;52.248;20.952;2023-03-24T13:53:00;3.53;;;3.03;;
17283;SDS011;8760;52.248;20.952;2023-03-24T13:55:34;5.97;;;2.88;;
17283;SDS011;8760;52.248;20.952;2023-03-24T13:58:04;4.57;;;2.70;;
17283;SDS011;8760;52.248;20.952;2023-03-24T14:00:47;4.32;;;3.00;;
17283;SDS011;8760;52.248;20.952;2023-03-24T14:03:32;4.72;;;2.85;;
17283;SDS011;8760;52.248;20.952;2023-03-24T14:06:01;4.90;;;2.85;;
17283;SDS011;8760;52.248;20.952;2023-03-24T14:08:33;7.50;;;2.78;;
17283;SDS011;8760;52.248;20.952;2023-03-24T14:11:09;3.85;;;2.63;;
17283;SDS011;8760;52.248;20.952;2023-03-24T14:14:25;3.85;;;2.67;;
17283;SDS011;8760;52.248;20.952;2023-03-24T14:17:01;5.53;;;3.00;;
17283;SDS011;8760;52.248;20.952;2023-03-24T14:19:36;5.30;;;2.90;;
17283;SDS011;8760;52.248;20.952;2023-03-24T14:22:08;5.75;;;2.63;;
17283;SDS011;8760;52.248;20.952;2023-03-24T14:24:38;5.32;;;2.80;;
17283;SDS011;8760;52.248;20.952;2023-03-24T14:27:25;2.72;;;2.35;;
17283;SDS011;8760;52.248;20.952;2023-03-24T14:30:02;4.35;;;2.38;;
17283;SDS011;8760;52.248;20.952;2023-03-24T14:32:36;3.55;;;3.00;;
17283;SDS011;8760;52.248;20.952;2023-03-24T14:35:16;7.20;;;2.65;;
17283;SDS011;8760;52.248;20.952;2023-03-24T14:37:48;2.95;;;2.65;;
17283;SDS011;8760;52.248;20.952;2023-03-24T14:40:24;5.07;;;3.70;;
17283;SDS011;8760;52.248;20.952;2023-03-24T14:43:04;5.50;;;2.85;;
17283;SDS011;8760;52.248;20.952;2023-03-24T14:45:52;6.20;;;2.35;;
17283;SDS011;8760;52.248;20.952;2023-03-24T14:48:28;3.47;;;2.40;;
17283;SDS011;8760;52.248;20.952;2023-03-24T14:51:05;4.18;;;2.40;;
17283;SDS011;8760;52.248;20.952;2023-03-24T14:53:55;6.72;;;2.88;;
17283;SDS011;8760;52.248;20.952;2023-03-24T14:56:23;6.68;;;3.10;;
17283;SDS011;8760;52.248;20.952;2023-03-24T14:58:56;5.97;;;3.10;;
17283;SDS011;8760;52.248;20.952;2023-03-24T15:01:30;6.85;;;2.88;;
17283;SDS011;8760;52.248;20.952;2023-03-24T15:04:01;5.22;;;2.78;;
17283;SDS011;8760;52.248;20.952;2023-03-24T15:06:30;4.53;;;3.28;;
17283;SDS011;8760;52.248;20.952;2023-03-24T15:08:57;3.53;;;2.63;;
17283;SDS011;8760;52.248;20.952;2023-03-24T15:11:31;4.40;;;2.70;;
17283;SDS011;8760;52.248;20.952;2023-03-24T15:13:59;5.35;;;3.20;;
17283;SDS011;8760;52.248;20.952;2023-03-24T15:16:30;4.47;;;2.33;;
17283;SDS011;8760;52.248;20.952;2023-03-24T15:18:58;4.03;;;2.58;;
17283;SDS011;8760;52.248;20.952;2023-03-24T15:21:31;5.68;;;2.58;;
17283;SDS011;8760;52.248;20.952;2023-03-24T15:24:00;3.00;;;2.10;;
17283;SDS011;8760;52.248;20.952;2023-03-24T15:26:29;4.07;;;2.70;;
17283;SDS011;8760;52.248;20.952;2023-03-24T15:28:58;3.55;;;2.78;;
17283;SDS011;8760;52.248;20.952;2023-03-24T15:31:26;3.05;;;2.70;;